Time;durP1;ratioP1;P1;durP2;ratioP2;P2;SDS_P1;SDS_P2;PMS_P1;PMS_P2;Temp;Humidity;BMP_temperature;BMP_pressure;BME280_temperature;BME280_humidity;BME280_pressure;Samples;Min_cycle;Max_cycle;Signal;HPM_P1;HPM_P2
2022/02/25 00:01:05;;;;;;;23.00;9.48;;;;;;;-0.71;89.64;97407.88;5044069;28;20064;-55
2022/02/25 00:03:32;;;;;;;11.32;4.60;;;;;;;-1.85;89.28;97202.38;5044336;28;20056;-60
2022/02/25 00:05:59;;;;;;;10.52;3.78;;;;;;;-1.13;90.60;97329.78;5045405;28;20781;-58
2022/02/25 00:08:26;;;;;;;12.35;4.50;;;;;;;-0.93;89.04;97328.75;5045821;28;20049;-60
2022/02/25 00:10:52;;;;;;;9.52;2.88;;;;;;;-0.40;87.83;97395.50;5045687;28;20092;-60
2022/02/25 00:13:19;;;;;;;10.60;3.63;;;;;;;-0.37;87.30;97386.75;5045619;28;20057;-56
2022/02/25 00:15:46;;;;;;;13.10;3.15;;;;;;;-0.33;86.86;97382.34;5043931;28;20504;-60
2022/02/25 00:18:13;;;;;;;10.77;3.50;;;;;;;-0.49;88.18;97389.09;5045357;28;20053;-56
2022/02/25 00:20:40;;;;;;;8.85;3.33;;;;;;;-1.02;89.23;97330.47;5043916;28;20451;-55
2022/02/25 00:23:07;;;;;;;12.77;4.15;;;;;;;-0.66;88.72;97383.31;5044578;28;20055;-56
2022/02/25 00:25:34;;;;;;;11.02;3.33;;;;;;;-0.61;87.36;97380.53;5045076;28;20049;-56
2022/02/25 00:28:01;;;;;;;5.65;2.58;;;;;;;-0.64;87.44;97381.13;5045167;28;20530;-61
2022/02/25 00:30:28;;;;;;;16.23;4.20;;;;;;;-0.83;88.31;97382.97;5043960;28;20049;-55
2022/02/25 00:32:54;;;;;;;9.57;3.50;;;;;;;-0.81;90.08;97380.78;5044312;28;20045;-61
2022/02/25 00:35:21;;;;;;;10.93;4.03;;;;;;;-0.72;88.51;97368.16;5045641;28;20408;-61
2022/02/25 00:37:49;;;;;;;12.65;4.25;;;;;;;-0.74;88.83;97379.34;5045193;28;20055;-58
2022/02/25 00:40:15;;;;;;;9.18;3.75;;;;;;;-0.70;88.22;97388.53;5045240;28;20056;-61
2022/02/25 00:42:42;;;;;;;16.77;4.10;;;;;;;-0.78;87.94;97385.66;5043346;28;20504;-56
2022/02/25 00:45:09;;;;;;;10.50;3.47;;;;;;;-0.75;88.21;97376.91;5044401;28;20048;-57
2022/02/25 00:47:37;;;;;;;10.05;3.72;;;;;;;-1.30;88.22;97290.56;5045050;28;20045;-57
2022/02/25 00:50:06;;;;;;;8.60;3.63;;;;;;;-0.88;88.97;97369.44;5044706;28;20052;-61
2022/02/25 00:52:32;;;;;;;12.38;3.67;;;;;;;-0.83;89.42;97372.09;5044792;28;20060;-56
2022/02/25 00:54:59;;;;;;;7.95;2.95;;;;;;;-0.80;89.09;97376.97;5045251;28;20057;-60
2022/02/25 00:57:26;;;;;;;11.50;3.78;;;;;;;-0.81;89.29;97380.78;5044990;28;20327;-56
2022/02/25 00:59:54;;;;;;;15.35;4.72;;;;;;;-0.73;87.76;97366.56;5044623;28;20083;-61
2022/02/25 01:02:21;;;;;;;18.15;7.95;;;;;;;-0.82;88.11;97362.88;5043440;28;20125;-58
2022/02/25 01:04:49;;;;;;;15.60;6.88;;;;;;;-0.74;87.65;97363.00;5044660;28;20063;-55
2022/02/25 01:07:15;;;;;;;18.17;6.07;;;;;;;-0.78;87.97;97358.44;5044673;28;20061;-55
2022/02/25 01:09:43;;;;;;;12.98;5.57;;;;;;;-1.21;88.66;97289.66;5044402;28;20056;-58
2022/02/25 01:12:11;;;;;;;11.65;5.20;;;;;;;-0.94;88.78;97332.53;5044230;28;20059;-60
2022/02/25 01:14:37;;;;;;;10.48;5.15;;;;;;;-0.79;90.04;97352.19;5044542;28;20053;-57
2022/02/25 01:17:04;;;;;;;7.95;4.05;;;;;;;-0.68;88.17;97352.91;5044702;28;20055;-56
2022/02/25 01:19:31;;;;;;;7.80;3.40;;;;;;;-0.75;87.60;97353.25;5044601;28;20449;-60
2022/02/25 01:21:58;;;;;;;13.15;3.95;;;;;;;-0.74;86.74;97343.97;5043055;28;20512;-56
2022/02/25 01:24:24;;;;;;;12.90;3.20;;;;;;;-0.80;87.03;97344.34;5044387;28;20436;-55
2022/02/25 01:26:51;;;;;;;14.13;4.47;;;;;;;-0.83;87.48;97345.72;5044574;28;20049;-56
2022/02/25 01:29:18;;;;;;;11.13;4.13;;;;;;;-1.11;88.06;97299.59;5043928;28;20522;-60
2022/02/25 01:31:46;;;;;;;12.45;4.55;;;;;;;-1.13;88.90;97296.34;5044088;28;20053;-61
2022/02/25 01:34:13;;;;;;;11.55;4.65;;;;;;;-0.99;89.43;97347.00;5043659;28;20048;-57
2022/02/25 01:36:41;;;;;;;12.10;4.70;;;;;;;-1.06;90.09;97316.63;5044469;28;20052;-56
2022/02/25 01:39:07;;;;;;;14.00;5.65;;;;;;;-1.06;89.97;97319.34;5044077;28;20051;-55
2022/02/25 01:41:35;;;;;;;10.80;4.68;;;;;;;-0.90;90.39;97339.03;5043791;28;20138;-61
2022/02/25 01:44:17;;;;;;;10.98;4.50;;;;;;;-0.83;89.33;97320.44;5042190;28;20049;-61
2022/02/25 01:46:47;;;;;;;12.32;4.20;;;;;;;-1.35;89.49;97241.72;5043881;28;20063;-61
2022/02/25 01:49:14;;;;;;;13.70;4.80;;;;;;;-1.15;89.79;97265.91;5044002;28;20053;-61
2022/02/25 01:51:41;;;;;;;13.75;4.20;;;;;;;-1.07;89.21;97254.41;5042550;28;20057;-56
2022/02/25 01:54:08;;;;;;;9.20;3.95;;;;;;;-0.64;88.23;97316.66;5043927;28;20060;-56
2022/02/25 01:56:37;;;;;;;13.38;3.95;;;;;;;-0.71;89.25;97310.75;5043496;28;20413;-61
2022/02/25 01:59:04;;;;;;;24.58;5.55;;;;;;;-1.17;87.53;97241.75;5043448;28;20061;-62
2022/02/25 02:01:31;;;;;;;15.05;5.40;;;;;;;-1.33;88.27;97220.50;5043576;28;20057;-61
2022/02/25 02:03:59;;;;;;;11.98;4.72;;;;;;;-0.74;87.27;97305.09;5042112;28;20052;-56
2022/02/25 02:06:26;;;;;;;20.80;7.32;;;;;;;-1.21;85.78;97223.63;5043753;28;20049;-60
2022/02/25 02:08:54;;;;;;;26.38;8.02;;;;;;;-0.85;86.65;97298.16;5042209;28;20049;-57
2022/02/25 02:11:44;;;;;;;25.83;9.07;;;;;;;-1.63;86.64;97179.03;5042091;28;20072;-57
2022/02/25 02:14:16;;;;;;;17.40;6.72;;;;;;;-0.94;85.91;97294.47;5043379;28;20075;-58
2022/02/25 02:16:45;;;;;;;18.55;6.32;;;;;;;-1.09;86.78;97302.84;5043725;28;20052;-61
2022/02/25 02:19:12;;;;;;;9.93;3.58;;;;;;;-1.09;87.07;97303.63;5042034;28;20145;-61
2022/02/25 02:21:53;;;;;;;11.77;4.57;;;;;;;-1.14;86.87;97311.84;5043154;28;20064;-57
2022/02/25 02:24:23;;;;;;;14.35;5.43;;;;;;;-1.17;88.73;97311.63;5043730;28;20088;-60
2022/02/25 02:26:51;;;;;;;11.07;5.95;;;;;;;-1.38;89.96;97272.19;5043343;28;20437;-55
2022/02/25 02:29:18;;;;;;;25.25;7.65;;;;;;;-1.15;89.92;97304.78;5042015;28;20515;-60
2022/02/25 02:31:45;;;;;;;13.30;5.32;;;;;;;-1.19;88.85;97308.38;5043339;28;20051;-60
2022/02/25 02:34:14;;;;;;;11.98;4.20;;;;;;;-1.12;87.85;97309.63;5043960;28;20056;-60
2022/02/25 02:36:41;;;;;;;17.30;5.65;;;;;;;-1.14;86.93;97305.59;5043356;28;20053;-56
2022/02/25 02:39:10;;;;;;;15.60;5.28;;;;;;;-2.02;86.24;97208.22;5043360;28;20419;-61
2022/02/25 02:41:38;;;;;;;14.40;5.78;;;;;;;-1.17;86.69;97289.88;5042891;28;20451;-57
2022/02/25 02:44:05;;;;;;;16.73;5.60;;;;;;;-1.56;86.54;97260.97;5041627;28;20045;-60
2022/02/25 02:46:32;;;;;;;14.15;4.93;;;;;;;-1.27;87.13;97292.69;5046380;28;20088;-58
2022/02/25 02:49:00;;;;;;;18.20;6.28;;;;;;;-1.26;87.12;97291.59;5046987;28;20140;-57
2022/02/25 02:51:29;;;;;;;16.38;6.18;;;;;;;-1.30;87.28;97285.13;5047193;28;20049;-55
2022/02/25 02:53:56;;;;;;;12.52;4.95;;;;;;;-1.32;89.50;97292.75;5045820;28;20063;-58
2022/02/25 02:56:23;;;;;;;11.00;3.97;;;;;;;-1.28;89.00;97296.53;5047071;28;20060;-61
2022/02/25 02:58:55;;;;;;;15.13;4.55;;;;;;;-2.06;89.87;97185.50;5046359;28;20063;-61
2022/02/25 03:01:25;;;;;;;13.55;4.88;;;;;;;-1.40;89.71;97291.47;5046709;28;20067;-60
2022/02/25 03:03:53;;;;;;;8.18;3.67;;;;;;;-1.24;88.65;97297.56;5046797;28;20107;-60
2022/02/25 03:06:20;;;;;;;12.48;4.90;;;;;;;-1.29;87.31;97297.59;5046654;28;20053;-60
2022/02/25 03:08:47;;;;;;;15.48;6.72;;;;;;;-1.23;87.01;97296.47;5046609;28;20071;-56
2022/02/25 03:11:13;;;;;;;13.07;5.28;;;;;;;-1.92;88.19;97226.31;5046874;28;20048;-60
2022/02/25 03:13:40;;;;;;;12.90;4.85;;;;;;;-1.44;89.70;97300.50;5047416;28;20575;-56
2022/02/25 03:16:10;;;;;;;12.65;4.32;;;;;;;-1.38;88.84;97321.06;5046514;28;20526;-62
2022/02/25 03:18:36;;;;;;;9.82;3.88;;;;;;;-1.41;87.09;97299.91;5047004;28;20079;-61
2022/02/25 03:21:03;;;;;;;15.63;7.70;;;;;;;-1.80;87.70;97243.00;5046161;28;20070;-61
2022/02/25 03:23:30;;;;;;;42.45;16.70;;;;;;;-1.44;87.44;97300.50;5044910;28;20049;-61
2022/02/25 03:25:57;;;;;;;16.77;6.68;;;;;;;-1.49;89.22;97314.13;5045167;28;20049;-56
2022/02/25 03:28:23;;;;;;;13.20;5.68;;;;;;;-1.46;89.41;97302.69;5046297;28;20055;-61
2022/02/25 03:30:50;;;;;;;14.18;6.78;;;;;;;-1.47;90.61;97301.09;5045180;28;20051;-60
2022/02/25 03:33:16;;;;;;;18.52;6.45;;;;;;;-1.55;90.62;97299.81;5046602;28;20057;-61
2022/02/25 03:35:44;;;;;;;15.07;5.70;;;;;;;-2.19;90.30;97191.56;5045056;28;20045;-60
2022/02/25 03:38:10;;;;;;;11.80;3.67;;;;;;;-1.77;90.66;97286.69;5046598;28;20060;-60
2022/02/25 03:40:37;;;;;;;12.57;4.07;;;;;;;-2.07;90.80;97216.41;5046320;28;20049;-55
2022/02/25 03:43:04;;;;;;;10.82;4.22;;;;;;;-2.15;90.19;97213.53;5045983;28;20064;-61
2022/02/25 03:45:31;;;;;;;8.65;3.80;;;;;;;-1.48;90.01;97288.56;5046346;28;20075;-61
2022/02/25 03:47:58;;;;;;;10.27;4.28;;;;;;;-1.45;88.36;97290.75;5046160;28;20053;-61
2022/02/25 03:50:24;;;;;;;8.90;3.78;;;;;;;-1.46;88.33;97286.38;5045318;28;20057;-61
2022/02/25 03:52:51;;;;;;;12.13;3.42;;;;;;;-1.56;89.50;97287.31;5046041;28;20048;-60
2022/02/25 03:55:20;;;;;;;8.25;2.88;;;;;;;-2.30;90.20;97205.50;5046105;28;20052;-55
2022/02/25 03:57:47;;;;;;;7.25;3.30;;;;;;;-1.69;91.71;97294.22;5045029;28;20048;-61
2022/02/25 04:00:14;;;;;;;45.28;14.35;;;;;;;-1.64;89.67;97286.03;5045125;28;20061;-57
2022/02/25 04:02:41;;;;;;;60.70;19.13;;;;;;;-1.66;89.51;97285.50;5044356;28;20051;-55
2022/02/25 04:05:10;;;;;;;63.78;22.08;;;;;;;-1.60;88.66;97292.50;5045781;28;20061;-60
2022/02/25 04:07:42;;;;;;;55.63;18.30;;;;;;;-1.70;88.67;97284.47;5044416;28;20152;-61
2022/02/25 04:10:12;;;;;;;56.42;17.77;;;;;;;-2.02;88.53;97213.66;5045699;28;20059;-56
2022/02/25 04:12:40;;;;;;;57.63;18.50;;;;;;;-1.60;89.05;97281.63;5044039;28;20045;-56
2022/02/25 04:15:08;;;;;;;54.95;19.15;;;;;;;-2.12;88.81;97192.03;5045730;28;20060;-56
2022/02/25 04:17:35;;;;;;;46.17;18.63;;;;;;;-1.76;87.71;97250.31;5046119;28;20240;-60
2022/02/25 04:20:03;;;;;;;39.20;15.43;;;;;;;-1.41;87.02;97305.34;5046150;28;20052;-61
2022/02/25 04:22:29;;;;;;;31.25;12.80;;;;;;;-1.66;87.22;97277.34;5043907;28;20140;-57
2022/02/25 04:24:56;;;;;;;33.90;10.75;;;;;;;-1.45;86.62;97293.47;5044124;28;20098;-56
2022/02/25 04:27:23;;;;;;;39.30;13.70;;;;;;;-1.56;87.00;97288.13;5045387;28;20123;-61
2022/02/25 04:29:50;;;;;;;35.28;12.07;;;;;;;-1.57;87.25;97291.13;5043760;28;20045;-60
2022/02/25 04:32:17;;;;;;;37.30;12.75;;;;;;;-1.65;87.74;97275.47;5045162;28;20055;-55
2022/02/25 04:34:44;;;;;;;50.30;19.17;;;;;;;-1.50;86.49;97285.34;5045233;28;20396;-56
2022/02/25 04:37:11;;;;;;;36.58;13.40;;;;;;;-1.47;86.26;97279.34;5044922;28;20598;-61
2022/02/25 04:39:38;;;;;;;41.22;15.27;;;;;;;-1.67;86.61;97264.88;5043655;28;20053;-60
2022/02/25 04:42:04;;;;;;;35.05;13.35;;;;;;;-1.87;87.51;97243.38;5044789;28;20057;-57
2022/02/25 04:44:31;;;;;;;25.95;10.18;;;;;;;-1.52;86.06;97276.69;5045395;28;20045;-60
2022/02/25 04:46:58;;;;;;;23.83;9.63;;;;;;;-2.06;87.59;97212.63;5043731;28;20501;-61
2022/02/25 04:49:25;;;;;;;31.08;10.40;;;;;;;-1.75;88.09;97268.22;5044807;28;20096;-61
2022/02/25 04:51:52;;;;;;;29.60;13.50;;;;;;;-2.09;89.56;97213.19;5044547;28;20043;-61
2022/02/25 04:54:18;;;;;;;28.50;12.63;;;;;;;-1.88;87.55;97232.81;5044660;28;20075;-60
2022/02/25 04:56:45;;;;;;;21.92;6.97;;;;;;;-1.84;89.48;97269.94;5043931;28;20063;-61
2022/02/25 04:59:12;;;;;;;19.25;7.80;;;;;;;-1.88;89.88;97274.31;5044447;28;20053;-56
2022/02/25 05:01:39;;;;;;;25.45;11.00;;;;;;;-1.85;88.83;97278.38;5044832;28;20057;-61
2022/02/25 05:04:06;;;;;;;26.70;11.48;;;;;;;-1.91;87.97;97269.44;5043123;28;20442;-57
2022/02/25 05:06:34;;;;;;;43.88;16.65;;;;;;;-2.00;88.41;97265.75;5044477;28;20049;-56
2022/02/25 05:09:00;;;;;;;47.13;20.98;;;;;;;-2.11;88.73;97264.22;5042955;28;20045;-55
2022/02/25 05:11:27;;;;;;;62.05;24.40;;;;;;;-1.92;89.79;97291.44;5044149;28;20052;-61
2022/02/25 05:13:54;;;;;;;63.97;27.63;;;;;;;-2.43;88.83;97209.69;5044300;28;20056;-60
2022/02/25 05:21:52;;;;;;;83.55;36.60;;;;;;;-1.67;87.74;97286.59;5044412;28;20087;-61
2022/02/25 05:24:18;;;;;;;85.78;38.10;;;;;;;-1.60;88.50;97297.91;5044501;28;20044;-55
2022/02/25 05:26:45;;;;;;;64.90;30.67;;;;;;;-1.58;87.42;97290.31;5042809;28;20049;-59
2022/02/25 05:29:12;;;;;;;65.20;28.83;;;;;;;-2.02;87.40;97219.09;5043054;28;20057;-59
2022/02/25 05:31:39;;;;;;;40.72;18.48;;;;;;;-1.55;87.72;97278.88;5044035;28;20072;-59
2022/02/25 05:34:06;;;;;;;66.28;26.58;;;;;;;-1.25;85.62;97287.78;5043303;28;20148;-55
2022/02/25 05:36:32;;;;;;;49.90;21.00;;;;;;;-1.22;84.79;97277.16;5042750;28;20057;-56
2022/02/25 05:38:59;;;;;;;55.03;18.02;;;;;;;-1.29;86.13;97289.47;5043700;28;20049;-59
2022/02/25 05:41:26;;;;;;;33.83;13.65;;;;;;;-1.12;85.22;97289.81;5042305;28;20063;-59
2022/02/25 05:43:52;;;;;;;30.00;11.98;;;;;;;-0.96;85.17;97280.38;5043676;28;20052;-54
2022/02/25 05:46:19;;;;;;;26.02;10.52;;;;;;;-0.88;84.82;97277.81;5043837;28;20057;-59
2022/02/25 05:48:46;;;;;;;28.13;11.93;;;;;;;-0.85;84.29;97276.41;5043527;28;20057;-56
2022/02/25 05:51:13;;;;;;;23.85;9.88;;;;;;;-0.99;84.04;97232.84;5042414;28;20041;-59
2022/02/25 05:53:39;;;;;;;23.83;8.95;;;;;;;-0.59;82.85;97274.97;5043945;28;20049;-60
2022/02/25 05:56:06;;;;;;;26.27;10.27;;;;;;;-0.67;83.05;97251.16;5043525;28;20053;-59
2022/02/25 05:58:33;;;;;;;20.27;10.07;;;;;;;-0.69;82.50;97239.75;5034775;28;20056;-59
2022/02/25 06:00:59;;;;;;;19.80;8.73;;;;;;;-0.20;81.65;97270.03;5022987;28;20084;-59
2022/02/25 06:03:26;;;;;;;20.42;7.65;;;;;;;-0.11;80.93;97277.25;5023188;28;20085;-62
2022/02/25 06:05:56;;;;;;;24.45;10.52;;;;;;;-0.06;80.17;97249.94;5023543;28;20129;-60
2022/02/25 06:08:22;;;;;;;28.15;10.15;;;;;;;-0.21;80.65;97227.59;5023477;28;20068;-54
2022/02/25 06:10:49;;;;;;;23.63;9.13;;;;;;;0.03;81.13;97222.84;5024055;28;20056;-61
2022/02/25 06:13:16;;;;;;;25.00;8.15;;;;;;;0.43;78.83;97256.72;5023575;28;20055;-56
2022/02/25 06:15:43;;;;;;;11.68;5.00;;;;;;;0.51;78.65;97245.09;5023778;28;20052;-55
2022/02/25 06:18:10;;;;;;;14.70;5.30;;;;;;;0.26;76.80;97181.03;5023451;28;20064;-56
2022/02/25 06:20:36;;;;;;;18.52;5.80;;;;;;;0.61;75.49;97221.22;5023128;28;20050;-61
2022/02/25 06:23:04;;;;;;;14.88;5.85;;;;;;;0.95;76.06;97281.59;5023729;28;20174;-57
2022/02/25 06:25:30;;;;;;;29.70;10.18;;;;;;;1.04;76.90;97274.31;5021743;28;20574;-61
2022/02/25 06:27:57;;;;;;;18.55;7.45;;;;;;;1.24;76.20;97268.44;5021995;28;20049;-55
2022/02/25 06:30:24;;;;;;;43.42;13.02;;;;;;;1.47;76.48;97270.13;5023365;28;20488;-60
2022/02/25 06:32:52;;;;;;;34.03;13.13;;;;;;;1.53;76.37;97271.63;5023679;28;20061;-56
2022/02/25 06:35:19;;;;;;;36.50;14.75;;;;;;;1.73;75.37;97262.16;5023457;28;20046;-62
2022/02/25 06:37:45;;;;;;;49.40;18.05;;;;;;;1.90;75.34;97259.56;5021963;28;20091;-55
2022/02/25 06:40:13;;;;;;;61.83;23.30;;;;;;;1.61;74.39;97179.22;5021962;28;20416;-61
2022/02/25 06:42:40;;;;;;;66.45;24.10;;;;;;;2.26;72.36;97271.25;5023583;28;20463;-60
2022/02/25 06:45:14;;;;;;;38.80;16.67;;;;;;;2.43;72.37;97262.34;5023716;28;20050;-60
2022/02/25 06:47:41;;;;;;;40.90;15.60;;;;;;;2.19;70.09;97199.03;5023659;28;20057;-57
2022/02/25 06:50:09;;;;;;;22.73;9.90;;;;;;;2.64;70.38;97260.72;5023382;28;20072;-59
2022/02/25 06:52:36;;;;;;;25.02;9.57;;;;;;;2.79;70.17;97263.03;5023702;28;20053;-61
2022/02/25 06:55:04;;;;;;;23.63;9.88;;;;;;;2.88;70.16;97239.25;5021926;28;20053;-61
2022/02/25 06:57:50;;;;;;;27.50;12.18;;;;;;;3.20;68.36;97252.56;5024302;28;20064;-62
2022/02/25 07:00:21;;;;;;;23.70;10.13;;;;;;;3.40;66.63;97251.94;5041273;28;20064;-55
2022/02/25 07:02:50;;;;;;;30.98;11.90;;;;;;;3.58;67.09;97259.09;5042980;28;20095;-61
2022/02/25 07:05:17;;;;;;;30.77;14.23;;;;;;;3.44;64.31;97194.63;5042652;28;20479;-59
2022/02/25 07:07:44;;;;;;;29.38;12.00;;;;;;;3.52;62.97;97204.78;5042872;28;20440;-61
2022/02/25 07:10:12;;;;;;;29.55;13.40;;;;;;;3.88;63.30;97269.09;5043133;28;20498;-62
2022/02/25 07:12:39;;;;;;;32.17;13.70;;;;;;;3.42;62.53;97145.66;5037285;28;20107;-57
2022/02/25 07:15:08;;;;;;;21.70;8.02;;;;;;;4.16;61.98;97256.69;5037984;28;20518;-56
2022/02/25 07:17:36;;;;;;;16.65;4.32;;;;;;;4.32;62.78;97296.19;5042021;28;20114;-59
2022/02/25 07:20:04;;;;;;;16.05;5.40;;;;;;;4.52;63.81;97261.81;5041845;28;20440;-56
2022/02/25 07:22:46;;;;;;;14.18;4.80;;;;;;;4.60;63.18;97264.50;5042093;28;20072;-55
2022/02/25 07:25:13;;;;;;;31.08;10.68;;;;;;;4.90;63.82;97278.31;5042239;28;20049;-60
2022/02/25 07:27:40;;;;;;;11.48;4.38;;;;;;;5.23;60.42;97273.81;5042385;28;20049;-55
2022/02/25 07:30:09;;;;;;;16.30;5.95;;;;;;;5.04;61.23;97229.50;5042626;28;20448;-62
2022/02/25 07:32:36;;;;;;;9.95;3.50;;;;;;;5.61;58.35;97269.88;5044190;28;20057;-58
2022/02/25 07:35:04;;;;;;;11.90;4.15;;;;;;;5.74;58.22;97281.75;5046167;28;20048;-54
2022/02/25 07:37:32;;;;;;;7.25;2.47;;;;;;;5.48;58.08;97196.78;5045110;28;20060;-59
2022/02/25 07:39:58;;;;;;;3.80;2.17;;;;;;;6.06;56.81;97268.13;5046660;28;20057;-62
2022/02/25 07:42:26;;;;;;;6.78;3.42;;;;;;;6.11;56.43;97270.69;5045633;28;20067;-59
2022/02/25 07:44:53;;;;;;;6.55;2.40;;;;;;;6.38;56.86;97274.81;5044669;28;20071;-61
2022/02/25 07:47:24;;;;;;;3.92;2.10;;;;;;;6.49;55.33;97255.94;5045664;28;20490;-58
2022/02/25 07:49:51;;;;;;;7.40;2.80;;;;;;;6.03;54.22;97207.50;5044397;28;20057;-61
2022/02/25 07:52:18;;;;;;;6.65;2.70;;;;;;;6.78;54.27;97255.81;5045119;28;20045;-59
2022/02/25 07:54:45;;;;;;;7.30;2.85;;;;;;;7.04;54.51;97251.59;5044748;28;20059;-56
2022/02/25 07:57:14;;;;;;;7.88;3.10;;;;;;;7.05;52.84;97238.66;5044093;28;20063;-60
2022/02/25 07:59:42;;;;;;;6.20;2.65;;;;;;;7.27;53.97;97241.75;5044094;28;20061;-54
2022/02/25 08:02:09;;;;;;;5.10;2.42;;;;;;;7.11;50.97;97187.69;5044673;28;20439;-57
2022/02/25 08:04:36;;;;;;;8.48;3.13;;;;;;;7.69;51.78;97237.59;5042255;28;20061;-63
2022/02/25 08:07:23;;;;;;;7.07;3.90;;;;;;;7.14;51.39;97181.50;5043355;28;20053;-56
2022/02/25 08:09:50;;;;;;;12.73;3.63;;;;;;;7.25;51.97;97161.41;5043670;28;20584;-55
2022/02/25 08:12:17;;;;;;;9.68;3.78;;;;;;;7.49;51.23;97244.03;5041989;28;20484;-62
2022/02/25 08:14:44;;;;;;;47.67;19.30;;;;;;;7.82;52.41;97245.84;5043509;28;20049;-57
2022/02/25 08:17:11;;;;;;;13.18;5.60;;;;;;;8.11;51.13;97238.06;5044359;28;20049;-62
2022/02/25 08:19:37;;;;;;;11.90;4.90;;;;;;;8.37;51.03;97240.44;5045058;28;20057;-57
2022/02/25 08:22:04;;;;;;;9.10;4.65;;;;;;;8.55;50.28;97230.69;5042838;28;20053;-61
2022/02/25 08:24:32;;;;;;;16.20;6.45;;;;;;;8.80;49.99;97243.22;5044309;28;20085;-63
2022/02/25 08:26:58;;;;;;;14.35;6.10;;;;;;;9.00;49.12;97233.88;5044302;28;20057;-61
2022/02/25 08:29:25;;;;;;;9.93;6.35;;;;;;;9.11;46.61;97215.59;5043167;28;20380;-62
2022/02/25 08:31:52;;;;;;;14.75;6.45;;;;;;;9.11;45.27;97221.13;5043518;28;20097;-60
2022/02/25 08:34:19;;;;;;;25.25;10.10;;;;;;;9.11;45.98;97187.97;5042770;28;20076;-57
2022/02/25 08:36:46;;;;;;;11.32;4.45;;;;;;;9.38;45.19;97189.00;5044363;28;20577;-61
2022/02/25 08:39:13;;;;;;;15.75;5.82;;;;;;;9.39;43.99;97188.66;5043645;28;20037;-54
2022/02/25 08:41:40;;;;;;;7.70;2.92;;;;;;;9.33;41.35;97228.78;5035542;28;20053;-60
2022/02/25 08:44:07;;;;;;;10.45;5.03;;;;;;;9.13;41.97;97166.31;5038101;28;20056;-55
2022/02/25 08:46:37;;;;;;;15.18;5.03;;;;;;;9.65;42.93;97212.97;5044840;28;20168;-59
2022/02/25 08:49:05;;;;;;;5.68;2.88;;;;;;;9.80;40.76;97218.47;5043984;28;20154;-62
2022/02/25 08:51:32;;;;;;;14.85;5.43;;;;;;;9.88;41.13;97216.69;5044472;28;20049;-61
2022/02/25 08:53:59;;;;;;;7.72;3.05;;;;;;;9.36;42.53;97158.97;5043360;28;20140;-55
2022/02/25 08:56:26;;;;;;;13.98;6.18;;;;;;;9.85;41.35;97196.06;5043144;28;20139;-55
2022/02/25 08:58:53;;;;;;;19.27;8.05;;;;;;;10.14;41.04;97198.31;5041799;28;20063;-63
2022/02/25 09:01:19;;;;;;;10.43;4.43;;;;;;;9.78;40.68;97179.31;5043651;28;20053;-56
2022/02/25 09:03:47;;;;;;;8.35;2.67;;;;;;;10.00;40.29;97181.38;5042880;28;20091;-56
2022/02/25 09:06:14;;;;;;;7.22;3.42;;;;;;;10.21;39.71;97212.28;5043583;28;20056;-61
2022/02/25 09:08:42;;;;;;;18.92;6.88;;;;;;;10.32;39.99;97199.47;5041967;28;20060;-56
2022/02/25 09:11:09;;;;;;;13.32;6.75;;;;;;;10.12;39.97;97161.06;5042987;28;20071;-56
2022/02/25 09:13:36;;;;;;;9.65;4.18;;;;;;;10.35;40.04;97209.78;5043946;28;20455;-61
2022/02/25 09:16:04;;;;;;;10.88;4.00;;;;;;;10.13;39.21;97152.41;5043254;28;20049;-55
2022/02/25 09:18:31;;;;;;;8.48;3.50;;;;;;;10.30;39.62;97193.50;5042684;28;20052;-61
2022/02/25 09:20:58;;;;;;;8.43;3.05;;;;;;;10.08;40.13;97127.81;5042960;28;20063;-55
2022/02/25 09:23:25;;;;;;;6.43;3.10;;;;;;;10.58;39.79;97185.75;5041580;28;20146;-57
2022/02/25 09:25:52;;;;;;;5.22;2.25;;;;;;;10.15;39.97;97182.47;5043645;28;20433;-61
2022/02/25 09:28:19;;;;;;;4.22;2.15;;;;;;;10.12;39.51;97184.03;5042583;28;20281;-61
2022/02/25 09:30:48;;;;;;;5.60;2.20;;;;;;;9.98;39.09;97175.38;5042966;28;20048;-59
2022/02/25 09:33:15;;;;;;;5.22;2.95;;;;;;;10.33;38.96;97183.66;5043372;28;20053;-62
2022/02/25 09:35:41;;;;;;;5.47;2.67;;;;;;;10.51;39.12;97179.28;5041777;28;20154;-58
2022/02/25 09:38:09;;;;;;;5.85;2.50;;;;;;;10.39;38.82;97111.00;5042429;28;20526;-59
2022/02/25 09:40:37;;;;;;;8.43;3.65;;;;;;;10.38;39.10;97126.03;5025698;28;20056;-61
2022/02/25 09:43:05;;;;;;;5.65;2.50;;;;;;;10.89;38.91;97157.00;5042688;28;20056;-60
2022/02/25 09:45:32;;;;;;;6.90;2.55;;;;;;;10.55;38.15;97081.22;5043097;28;20051;-56
2022/02/25 09:48:03;;;;;;;9.00;2.88;;;;;;;10.77;39.05;97109.28;5042871;28;20049;-57
2022/02/25 09:50:30;;;;;;;3.80;2.67;;;;;;;10.18;38.38;97132.72;5043231;28;20049;-65
2022/02/25 09:52:57;;;;;;;3.75;2.17;;;;;;;10.23;39.42;97140.75;5041752;28;20056;-56
2022/02/25 09:55:27;;;;;;;2.85;1.70;;;;;;;10.63;39.30;97132.00;5042129;28;20103;-57
2022/02/25 09:57:56;;;;;;;6.72;2.33;;;;;;;10.69;37.67;97095.31;5043121;28;20584;-61
2022/02/25 10:00:23;;;;;;;5.07;2.05;;;;;;;10.99;38.16;97138.97;5038778;28;20120;-64
2022/02/25 10:02:55;;;;;;;6.15;2.72;;;;;;;11.18;38.37;97138.88;5042221;28;20052;-60
2022/02/25 10:05:24;;;;;;;4.20;2.10;;;;;;;11.18;37.50;97136.09;5042256;28;20570;-53
2022/02/25 10:07:52;;;;;;;3.80;2.28;;;;;;;11.33;37.07;97138.75;5042632;28;20136;-60
2022/02/25 10:10:26;;;;;;;4.85;2.30;;;;;;;11.37;37.44;97138.78;5042387;28;20479;-60
2022/02/25 10:12:59;;;;;;;6.50;2.20;;;;;;;11.56;37.69;97135.91;5043054;28;20079;-60
2022/02/25 10:15:34;;;;;;;5.43;2.22;;;;;;;11.54;37.33;97127.19;5041807;28;20132;-53
2022/02/25 10:18:04;;;;;;;4.72;2.22;;;;;;;11.54;37.34;97129.94;5041861;28;20049;-54
2022/02/25 10:20:32;;;;;;;5.13;2.50;;;;;;;11.74;37.29;97125.91;5043505;28;20052;-61
2022/02/25 10:23:22;;;;;;;3.97;2.30;;;;;;;11.90;36.61;97124.53;5041774;28;20140;-59
2022/02/25 10:25:49;;;;;;;7.43;2.97;;;;;;;11.86;36.04;97120.09;5043581;28;20053;-54
2022/02/25 10:28:29;;;;;;;9.25;3.50;;;;;;;11.82;36.52;97122.03;5042849;28;20049;-54
2022/02/25 10:31:18;;;;;;;5.30;2.53;;;;;;;12.00;35.52;97117.50;5042983;28;20099;-59
2022/02/25 10:33:58;;;;;;;6.20;2.70;;;;;;;11.94;35.77;97097.63;5042294;28;20049;-55
2022/02/25 10:36:37;;;;;;;7.72;3.10;;;;;;;12.13;34.90;97103.00;5043119;28;20052;-60
2022/02/25 10:39:04;;;;;;;5.05;2.90;;;;;;;12.20;34.75;97097.53;5041338;28;20060;-60
2022/02/25 10:41:30;;;;;;;4.97;2.03;;;;;;;12.01;33.69;97089.38;5041450;28;20055;-53
2022/02/25 10:43:57;;;;;;;5.90;2.97;;;;;;;12.13;34.48;97082.75;5042460;28;20056;-54
2022/02/25 10:46:24;;;;;;;4.10;2.00;;;;;;;11.87;33.43;97063.44;5042785;28;20053;-55
2022/02/25 10:49:04;;;;;;;3.95;1.90;;;;;;;11.96;32.65;97066.72;5042493;28;20049;-59
2022/02/25 10:51:35;;;;;;;3.80;2.20;;;;;;;11.62;33.54;97004.00;5043135;28;20061;-59
2022/02/25 10:54:05;;;;;;;6.70;3.00;;;;;;;12.01;34.04;97063.59;5041836;28;20057;-61
2022/02/25 10:56:46;;;;;;;4.30;2.08;;;;;;;12.14;32.04;97053.81;5040186;28;20049;-56
2022/02/25 10:59:13;;;;;;;7.15;2.30;;;;;;;11.88;31.74;97049.19;5042250;28;20055;-61
2022/02/25 11:01:42;;;;;;;5.45;2.50;;;;;;;9.19;32.99;96623.25;5039687;28;20208;-61
2022/02/25 11:04:13;;;;;;;7.32;2.45;;;;;;;11.83;33.14;96995.97;5042338;28;20136;-56
2022/02/25 11:06:42;;;;;;;6.40;2.30;;;;;;;12.09;32.05;97020.84;5042570;28;20056;-60
2022/02/25 11:09:09;;;;;;;4.63;2.28;;;;;;;12.27;31.90;97026.56;5043810;28;20128;-60
2022/02/25 11:11:36;;;;;;;3.67;2.03;;;;;;;12.11;31.30;96979.59;5046503;28;20045;-61
2022/02/25 11:14:05;;;;;;;3.95;1.80;;;;;;;11.42;31.67;96891.63;5044918;28;20068;-55
2022/02/25 11:16:33;;;;;;;3.28;1.83;;;;;;;12.27;31.03;97026.56;5043922;28;20050;-55
2022/02/25 11:19:23;;;;;;;1.75;1.42;;;;;;;12.63;30.03;97022.97;5039003;28;20045;-59
2022/02/25 11:21:51;;;;;;;2.22;1.40;;;;;;;12.11;28.78;96993.50;5046154;28;20053;-55
2022/02/25 11:24:18;;;;;;;1.55;1.17;;;;;;;11.52;29.08;96946.44;5046245;28;20057;-55
2022/02/25 11:26:45;;;;;;;3.92;1.70;;;;;;;12.16;29.49;97009.81;5045949;28;20045;-57
2022/02/25 11:29:14;;;;;;;5.95;1.45;;;;;;;12.14;28.91;97012.16;5045102;28;20064;-61
2022/02/25 11:31:43;;;;;;;10.10;1.48;;;;;;;11.57;28.89;97001.59;5045808;28;20049;-58
2022/02/25 11:34:13;;;;;;;2.47;1.33;;;;;;;11.38;29.32;96943.50;5046258;28;20061;-55
2022/02/25 11:36:46;;;;;;;2.47;1.30;;;;;;;11.31;29.37;96929.53;5045567;28;20053;-60
2022/02/25 11:39:26;;;;;;;1.35;1.02;;;;;;;11.15;28.59;96993.50;5045584;28;20053;-63